Time;durP1;ratioP1;P1;durP2;ratioP2;P2;SDS_P1;SDS_P2;PMS_P1;PMS_P2;Temp;Humidity;BMP_temperature;BMP_pressure;BME280_temperature;BME280_humidity;BME280_pressure;Samples;Min_cycle;Max_cycle;Signal;HPM_P1;HPM_P2
2021/06/03 00:00:23;;;;;;;15.48;10.82;;;17.90;99.90;;;;;;6163563;23;20044;-78
2021/06/03 00:02:50;;;;;;;17.38;10.85;;;17.90;99.90;;;;;;6152896;23;20032;-79
2021/06/03 00:05:23;;;;;;;21.50;10.98;;;17.90;99.90;;;;;;6184282;23;20014;-80
2021/06/03 00:07:49;;;;;;;17.45;10.82;;;17.80;99.90;;;;;;6182727;23;20038;-79
2021/06/03 00:10:16;;;;;;;16.83;10.82;;;17.80;99.90;;;;;;6185707;23;20391;-79
2021/06/03 00:12:42;;;;;;;17.58;11.00;;;17.80;99.90;;;;;;6151609;23;20090;-79
2021/06/03 00:15:13;;;;;;;17.88;10.75;;;17.80;99.90;;;;;;6175272;23;20096;-79
2021/06/03 00:17:40;;;;;;;21.00;10.80;;;17.70;99.90;;;;;;6164026;23;20068;-80
2021/06/03 00:20:12;;;;;;;18.55;11.35;;;17.80;99.90;;;;;;6154264;23;20014;-80
2021/06/03 00:22:38;;;;;;;16.70;10.98;;;17.70;99.90;;;;;;6163228;23;20014;-80
2021/06/03 00:25:05;;;;;;;17.45;11.30;;;17.60;99.90;;;;;;6163167;23;20096;-80
2021/06/03 00:27:31;;;;;;;17.30;11.18;;;17.60;99.90;;;;;;6153737;23;20048;-80
2021/06/03 00:29:57;;;;;;;24.95;12.10;;;17.50;99.90;;;;;;6187624;23;20020;-80
2021/06/03 00:32:22;;;;;;;16.70;11.70;;;17.40;99.90;;;;;;6153609;23;20009;-80
2021/06/03 00:34:48;;;;;;;20.90;12.10;;;17.40;99.90;;;;;;6154412;23;20029;-79
2021/06/03 00:37:14;;;;;;;16.95;11.48;;;17.50;99.90;;;;;;6163807;23;20152;-79
2021/06/03 00:39:40;;;;;;;16.98;12.30;;;17.40;99.90;;;;;;6152014;23;20430;-80
2021/06/03 00:42:05;;;;;;;14.80;11.73;;;17.40;99.90;;;;;;6176703;23;20025;-80
2021/06/03 00:44:32;;;;;;;18.42;12.25;;;17.30;99.90;;;;;;6152349;23;20018;-81
2021/06/03 00:46:58;;;;;;;18.40;12.05;;;17.30;99.90;;;;;;6163219;23;20526;-80
2021/06/03 00:49:23;;;;;;;21.85;12.15;;;17.30;99.90;;;;;;6163439;23;20092;-79
2021/06/03 00:51:49;;;;;;;23.85;11.48;;;17.30;99.90;;;;;;6152653;23;20075;-80
2021/06/03 00:54:16;;;;;;;20.58;11.02;;;17.30;99.90;;;;;;6152330;23;20092;-79
2021/06/03 00:56:42;;;;;;;18.63;11.55;;;17.30;99.90;;;;;;6177088;23;20092;-80
2021/06/03 00:59:07;;;;;;;18.33;11.30;;;17.30;99.90;;;;;;6162138;23;20087;-79
2021/06/03 01:01:33;;;;;;;18.63;11.13;;;17.30;99.90;;;;;;6176171;23;20119;-80
2021/06/03 01:03:59;;;;;;;17.73;11.65;;;17.30;99.90;;;;;;6156560;23;20092;-79
2021/06/03 01:06:26;;;;;;;18.27;11.20;;;17.30;99.90;;;;;;6187083;23;20068;-80
2021/06/03 01:09:07;;;;;;;15.75;10.98;;;17.30;99.90;;;;;;6152623;23;20052;-79
2021/06/03 01:11:48;;;;;;;15.55;10.93;;;17.30;99.90;;;;;;6186616;23;20013;-79
2021/06/03 01:14:30;;;;;;;13.65;11.00;;;17.30;99.90;;;;;;6163785;23;20072;-78
2021/06/03 01:16:58;;;;;;;17.30;10.85;;;17.40;99.90;;;;;;6186950;23;20022;-81
2021/06/03 01:19:32;;;;;;;17.42;10.95;;;17.30;99.90;;;;;;6152603;23;20021;-80
2021/06/03 01:22:16;;;;;;;16.15;10.13;;;17.30;99.90;;;;;;6184514;23;20014;-80
2021/06/03 01:24:53;;;;;;;16.67;10.47;;;17.30;99.90;;;;;;6178509;23;20422;-80
2021/06/03 01:27:24;;;;;;;13.38;10.43;;;17.30;99.90;;;;;;6151830;23;20391;-78
2021/06/03 01:30:12;;;;;;;17.40;10.65;;;17.30;99.90;;;;;;6163519;23;20020;-79
2021/06/03 01:32:51;;;;;;;15.77;10.38;;;17.40;99.90;;;;;;6176959;23;20017;-79
2021/06/03 01:35:23;;;;;;;19.63;10.70;;;17.40;99.90;;;;;;6129494;23;20017;-79
2021/06/03 01:37:51;;;;;;;14.27;10.68;;;17.40;99.90;;;;;;6176008;23;20020;-80
2021/06/03 01:40:20;;;;;;;14.27;10.75;;;17.30;99.90;;;;;;6164003;23;20014;-80
2021/06/03 01:42:47;;;;;;;22.70;10.88;;;17.30;99.90;;;;;;6152885;23;20017;-79
2021/06/03 01:45:15;;;;;;;14.48;10.57;;;17.30;99.90;;;;;;6176636;23;20040;-80
2021/06/03 01:47:42;;;;;;;12.80;10.18;;;17.30;99.90;;;;;;6176748;23;20473;-81
2021/06/03 01:50:10;;;;;;;15.88;10.50;;;17.30;99.90;;;;;;6176489;23;20020;-80
2021/06/03 01:52:37;;;;;;;16.42;9.93;;;17.20;99.90;;;;;;6151244;23;20010;-78
2021/06/03 01:55:05;;;;;;;16.27;10.88;;;17.20;99.90;;;;;;6177147;23;20092;-80
2021/06/03 01:57:31;;;;;;;14.13;9.88;;;17.20;99.90;;;;;;6153370;23;20076;-79
2021/06/03 01:59:57;;;;;;;18.98;10.02;;;17.20;99.90;;;;;;6151917;23;20009;-80
2021/06/03 02:02:23;;;;;;;13.95;10.00;;;17.20;99.90;;;;;;6151637;23;20319;-81
2021/06/03 02:04:48;;;;;;;14.23;9.90;;;17.10;99.90;;;;;;6163068;23;20067;-79
2021/06/03 02:07:14;;;;;;;14.10;10.57;;;17.10;99.90;;;;;;6162699;23;20081;-81
2021/06/03 02:09:40;;;;;;;11.63;9.90;;;17.10;99.90;;;;;;6156031;23;20025;-80
2021/06/03 02:12:10;;;;;;;12.93;9.88;;;17.00;99.90;;;;;;6176232;23;20010;-80
2021/06/03 02:14:40;;;;;;;11.55;9.70;;;17.10;99.90;;;;;;6151560;23;20100;-80
2021/06/03 02:17:17;;;;;;;14.45;10.20;;;17.10;99.90;;;;;;6186822;23;20068;-80
2021/06/03 02:19:45;;;;;;;13.88;10.00;;;17.10;99.90;;;;;;6151828;23;20076;-80
2021/06/03 02:22:12;;;;;;;14.10;10.38;;;17.00;99.90;;;;;;6126591;23;20379;-80
2021/06/03 02:24:38;;;;;;;12.00;10.27;;;17.00;99.90;;;;;;6155510;23;20112;-80
2021/06/03 02:27:06;;;;;;;12.68;9.85;;;17.00;99.90;;;;;;6151244;23;20354;-81
2021/06/03 02:29:33;;;;;;;15.57;10.30;;;17.00;99.90;;;;;;6177070;23;20065;-81
2021/06/03 02:31:59;;;;;;;14.52;10.20;;;17.00;99.90;;;;;;6162936;23;20085;-81
2021/06/03 02:34:26;;;;;;;12.68;9.52;;;17.00;99.90;;;;;;6164654;23;20020;-79
2021/06/03 02:36:52;;;;;;;14.00;9.77;;;17.00;99.90;;;;;;6164976;23;20029;-80
2021/06/03 02:39:21;;;;;;;12.40;9.45;;;17.00;99.90;;;;;;6178266;23;20140;-80
2021/06/03 02:41:48;;;;;;;16.48;9.43;;;16.90;99.90;;;;;;6178976;23;20014;-79
2021/06/03 02:44:14;;;;;;;12.45;9.25;;;16.90;99.90;;;;;;6178260;23;20089;-80
2021/06/03 02:46:40;;;;;;;12.30;9.52;;;16.90;99.90;;;;;;6187804;23;20017;-80
2021/06/03 02:49:06;;;;;;;11.35;9.02;;;16.90;99.90;;;;;;6155409;23;20048;-82
2021/06/03 02:51:32;;;;;;;16.33;10.23;;;16.80;99.90;;;;;;6155331;23;20017;-80
2021/06/03 02:53:58;;;;;;;13.48;9.77;;;16.80;99.90;;;;;;6177188;23;20088;-79
2021/06/03 02:56:24;;;;;;;11.88;9.50;;;16.80;99.90;;;;;;6163153;23;20021;-81
2021/06/03 02:58:49;;;;;;;13.02;9.27;;;16.70;99.90;;;;;;6153539;23;20009;-80
2021/06/03 03:01:15;;;;;;;16.13;10.23;;;16.70;99.90;;;;;;6182247;23;20017;-80
2021/06/03 03:03:41;;;;;;;10.80;9.65;;;16.60;99.90;;;;;;6184510;23;20092;-81
2021/06/03 03:06:07;;;;;;;13.07;9.68;;;16.70;99.90;;;;;;6185120;23;20519;-79
2021/06/03 03:08:33;;;;;;;20.17;10.10;;;16.60;99.90;;;;;;6156994;23;20016;-80
2021/06/03 03:11:02;;;;;;;13.25;9.38;;;16.70;99.90;;;;;;6193962;23;20013;-81
2021/06/03 03:13:28;;;;;;;13.40;9.73;;;16.70;99.90;;;;;;6182368;23;20040;-80
2021/06/03 03:15:55;;;;;;;15.73;9.32;;;16.70;99.90;;;;;;6184365;23;20017;-81
2021/06/03 03:18:23;;;;;;;11.35;9.35;;;16.60;99.90;;;;;;6184787;23;20516;-81
2021/06/03 03:20:48;;;;;;;15.70;9.60;;;16.70;99.90;;;;;;6158063;23;20013;-82
2021/06/03 03:23:14;;;;;;;13.68;9.13;;;16.60;99.90;;;;;;6192087;23;20413;-80
2021/06/03 03:25:40;;;;;;;11.70;8.93;;;16.70;99.90;;;;;;6184985;23;20017;-79
2021/06/03 03:28:08;;;;;;;13.35;9.27;;;16.70;99.90;;;;;;6157624;23;20093;-80
2021/06/03 03:30:40;;;;;;;15.25;9.85;;;16.70;99.90;;;;;;6168174;23;20485;-79
2021/06/03 03:33:08;;;;;;;13.82;9.27;;;16.80;99.90;;;;;;6194410;23;20009;-81
2021/06/03 03:35:34;;;;;;;12.70;9.32;;;16.70;99.90;;;;;;6158247;23;20032;-81
2021/06/03 03:38:00;;;;;;;15.55;9.10;;;16.80;99.90;;;;;;6157794;23;20012;-81
2021/06/03 03:40:26;;;;;;;12.35;9.43;;;16.80;99.90;;;;;;6169060;23;20440;-81
2021/06/03 03:42:52;;;;;;;12.10;9.48;;;16.80;99.90;;;;;;6185441;23;20040;-79
2021/06/03 03:45:23;;;;;;;13.10;9.23;;;16.80;99.90;;;;;;6158575;23;20025;-80
2021/06/03 03:47:49;;;;;;;12.73;9.40;;;16.80;99.90;;;;;;6157820;23;20096;-80
2021/06/03 03:50:17;;;;;;;13.90;9.40;;;16.80;99.90;;;;;;6167663;23;20020;-82
2021/06/03 03:52:44;;;;;;;11.10;9.57;;;16.80;99.90;;;;;;6167100;23;20009;-80
2021/06/03 03:55:11;;;;;;;13.80;9.32;;;16.80;99.90;;;;;;6157750;23;20470;-81
2021/06/03 03:57:38;;;;;;;14.43;9.65;;;16.80;99.90;;;;;;6157429;23;20067;-80
2021/06/03 04:00:12;;;;;;;10.70;9.23;;;16.80;99.90;;;;;;6167771;23;20025;-80
2021/06/03 04:02:38;;;;;;;18.58;9.68;;;16.80;99.90;;;;;;6184150;23;20445;-81
2021/06/03 04:05:04;;;;;;;13.52;9.52;;;16.80;99.90;;;;;;6157391;23;20024;-81
2021/06/03 04:07:31;;;;;;;12.98;8.95;;;16.90;99.90;;;;;;6132446;23;20056;-81
2021/06/03 04:09:57;;;;;;;12.02;9.25;;;16.90;99.90;;;;;;6184075;23;20008;-80
2021/06/03 04:12:23;;;;;;;10.95;8.68;;;16.90;99.90;;;;;;6167420;23;20020;-81
2021/06/03 04:14:49;;;;;;;13.75;8.98;;;17.00;99.90;;;;;;6133052;23;20096;-80
2021/06/03 04:17:15;;;;;;;10.02;8.70;;;17.00;99.90;;;;;;6167249;23;20023;-82
2021/06/03 04:19:41;;;;;;;13.60;9.35;;;17.10;99.90;;;;;;6132597;23;20102;-80
2021/06/03 04:22:06;;;;;;;10.60;9.18;;;17.20;99.90;;;;;;6157436;23;20017;-81
2021/06/03 04:24:32;;;;;;;12.05;8.82;;;17.40;99.90;;;;;;6167301;23;20028;-81
2021/06/03 04:26:58;;;;;;;16.55;9.10;;;17.50;99.90;;;;;;6167189;23;20020;-81
2021/06/03 04:29:24;;;;;;;11.93;8.73;;;17.80;99.90;;;;;;6158790;23;20088;-82
2021/06/03 04:31:50;;;;;;;14.10;8.90;;;18.10;99.90;;;;;;6193467;23;20429;-81
2021/06/03 04:34:16;;;;;;;10.63;7.88;;;18.20;99.90;;;;;;6138322;23;20009;-80
2021/06/03 04:36:42;;;;;;;14.15;8.80;;;18.20;99.90;;;;;;6140676;23;20092;-80
2021/06/03 04:39:08;;;;;;;14.40;8.07;;;18.20;99.90;;;;;;6199965;23;20103;-80
2021/06/03 04:41:34;;;;;;;14.10;8.20;;;18.20;99.90;;;;;;6155373;23;20016;-81
2021/06/03 04:44:01;;;;;;;14.27;8.48;;;18.20;99.90;;;;;;6185279;23;20024;-79
2021/06/03 04:46:27;;;;;;;11.20;7.53;;;18.10;99.90;;;;;;6201729;23;20020;-81
2021/06/03 04:48:54;;;;;;;8.80;7.70;;;18.10;99.90;;;;;;6202780;23;20017;-80
2021/06/03 04:51:20;;;;;;;11.40;7.22;;;18.10;99.90;;;;;;6183845;23;20430;-79
2021/06/03 04:53:46;;;;;;;15.95;7.90;;;18.20;99.90;;;;;;6162888;23;20040;-79
2021/06/03 04:56:12;;;;;;;15.15;7.25;;;18.30;99.90;;;;;;6183061;23;20107;-78
2021/06/03 04:58:37;;;;;;;12.32;7.32;;;18.30;99.90;;;;;;6166537;23;20040;-79
2021/06/03 05:01:03;;;;;;;12.38;7.18;;;18.30;99.90;;;;;;6155843;23;20013;-79
2021/06/03 05:03:29;;;;;;;11.35;6.60;;;18.30;99.90;;;;;;6149576;23;20069;-78
2021/06/03 05:05:55;;;;;;;10.60;7.10;;;18.30;99.90;;;;;;6176409;23;20041;-77
2021/06/03 05:08:20;;;;;;;10.65;7.13;;;18.40;99.90;;;;;;6150788;23;20028;-79
2021/06/03 05:10:46;;;;;;;14.95;6.57;;;18.40;99.90;;;;;;6163176;23;20026;-79
2021/06/03 05:13:12;;;;;;;11.13;5.95;;;18.50;99.90;;;;;;6151358;23;20009;-78
2021/06/03 05:15:38;;;;;;;14.10;6.97;;;18.50;99.90;;;;;;6175938;23;20025;-78
2021/06/03 05:18:04;;;;;;;10.60;6.10;;;18.60;99.90;;;;;;6163113;23;20017;-79
2021/06/03 05:20:30;;;;;;;7.68;5.93;;;18.60;99.90;;;;;;6161914;23;20029;-80
2021/06/03 05:22:58;;;;;;;7.70;6.07;;;18.70;99.90;;;;;;6153479;23;20009;-78
2021/06/03 05:25:26;;;;;;;10.00;6.07;;;18.70;99.90;;;;;;6154604;23;20088;-78
2021/06/03 05:27:53;;;;;;;12.75;6.40;;;18.80;99.90;;;;;;6186539;23;20536;-80
2021/06/03 05:30:21;;;;;;;11.27;5.93;;;18.90;99.90;;;;;;6187935;23;20013;-78
2021/06/03 05:32:47;;;;;;;10.70;6.13;;;18.90;99.90;;;;;;6163543;23;20041;-80
2021/06/03 05:35:15;;;;;;;11.57;6.30;;;19.00;99.90;;;;;;6163456;23;20009;-77
2021/06/03 05:37:42;;;;;;;9.18;6.40;;;19.00;99.90;;;;;;6153145;23;20076;-77
2021/06/03 05:40:10;;;;;;;8.02;5.85;;;19.10;99.90;;;;;;6179423;23;20014;-76
2021/06/03 05:42:36;;;;;;;13.02;5.82;;;19.10;99.90;;;;;;6187364;23;20013;-77
2021/06/03 05:45:04;;;;;;;7.72;5.72;;;19.20;99.90;;;;;;6164610;23;20390;-77
2021/06/03 05:47:30;;;;;;;7.78;5.82;;;19.30;99.90;;;;;;6151904;23;20104;-79
2021/06/03 05:49:56;;;;;;;12.27;6.07;;;19.40;99.90;;;;;;6163917;23;20096;-78
2021/06/03 05:52:22;;;;;;;8.75;5.85;;;19.50;99.90;;;;;;6162218;23;20383;-79
2021/06/03 05:54:48;;;;;;;9.85;5.85;;;19.60;99.90;;;;;;6175746;23;20021;-80
2021/06/03 05:57:14;;;;;;;9.63;5.95;;;19.60;99.90;;;;;;6176134;23;20074;-78
2021/06/03 05:59:39;;;;;;;8.13;5.97;;;19.60;99.90;;;;;;6151178;23;20017;-79
2021/06/03 06:02:07;;;;;;;15.10;6.15;;;19.70;99.90;;;;;;6176073;23;20072;-77
2021/06/03 06:07:18;;;;;;;7.50;5.90;;;19.80;99.90;;;;;;6162386;23;20102;-79
2021/06/03 06:09:44;;;;;;;7.57;5.18;;;19.70;99.90;;;;;;6179531;23;20049;-78
2021/06/03 06:12:10;;;;;;;6.80;6.10;;;19.80;99.90;;;;;;6186425;23;20013;-77
2021/06/03 06:14:35;;;;;;;7.82;5.57;;;19.80;99.90;;;;;;6186732;23;20018;-77
2021/06/03 06:17:01;;;;;;;9.60;6.00;;;19.80;99.90;;;;;;6162275;23;20045;-78
2021/06/03 06:19:30;;;;;;;10.48;6.00;;;19.80;99.90;;;;;;6153068;23;20096;-79
2021/06/03 06:21:58;;;;;;;9.27;5.97;;;19.80;99.90;;;;;;6175355;23;20084;-80
2021/06/03 06:24:24;;;;;;;6.28;5.45;;;19.90;99.90;;;;;;6158391;23;20311;-78
2021/06/03 06:26:50;;;;;;;7.82;5.60;;;20.00;99.90;;;;;;6186632;23;20059;-80
2021/06/03 06:29:15;;;;;;;7.90;5.43;;;20.00;99.90;;;;;;6153414;23;20041;-79
2021/06/03 06:31:43;;;;;;;13.35;6.07;;;20.00;99.90;;;;;;6176705;23;20020;-79
2021/06/03 06:34:09;;;;;;;16.15;5.97;;;20.10;99.90;;;;;;6152701;23;20492;-79
2021/06/03 06:36:35;;;;;;;6.25;5.15;;;20.20;99.90;;;;;;6186341;23;20013;-80
2021/06/03 06:39:02;;;;;;;7.97;5.30;;;20.30;99.90;;;;;;6175066;23;20027;-80
2021/06/03 06:41:27;;;;;;;11.30;5.53;;;20.40;99.90;;;;;;6186300;23;20013;-78
2021/06/03 06:43:54;;;;;;;9.43;5.85;;;20.70;99.90;;;;;;6185368;23;20020;-80
2021/06/03 06:46:20;;;;;;;7.93;5.75;;;20.70;99.90;;;;;;6187155;23;20032;-80
2021/06/03 06:48:45;;;;;;;7.50;5.55;;;20.80;99.90;;;;;;6153182;23;20049;-79
2021/06/03 06:51:12;;;;;;;11.20;5.50;;;21.00;99.90;;;;;;6187889;23;20041;-78
2021/06/03 06:54:00;;;;;;;7.40;5.30;;;21.20;99.90;;;;;;6151803;23;20334;-79
2021/06/03 06:56:26;;;;;;;10.52;5.53;;;21.40;99.90;;;;;;6155308;23;20021;-78
2021/06/03 06:58:52;;;;;;;7.10;5.38;;;21.50;99.90;;;;;;6192103;23;20017;-78
2021/06/03 07:01:18;;;;;;;11.32;5.32;;;21.50;99.90;;;;;;6172160;23;20013;-79
2021/06/03 07:03:44;;;;;;;8.10;5.40;;;21.70;99.90;;;;;;6185576;23;20029;-79
2021/06/03 07:06:10;;;;;;;7.45;5.60;;;21.70;99.90;;;;;;6192459;23;20374;-78
2021/06/03 07:08:36;;;;;;;10.90;5.75;;;21.80;99.90;;;;;;6155689;23;20055;-81
2021/06/03 07:11:01;;;;;;;7.35;5.50;;;21.80;99.90;;;;;;6180377;23;20021;-79
2021/06/03 07:13:27;;;;;;;7.57;5.43;;;21.80;99.90;;;;;;6156407;23;20314;-80
2021/06/03 07:15:53;;;;;;;8.40;5.07;;;21.80;99.90;;;;;;6180243;23;20024;-78
2021/06/03 07:18:21;;;;;;;9.57;5.13;;;21.90;99.90;;;;;;6180707;23;20056;-77
2021/06/03 07:20:47;;;;;;;11.63;4.85;;;22.10;99.90;;;;;;6181261;23;20379;-79
2021/06/03 07:23:12;;;;;;;7.13;5.43;;;22.10;99.90;;;;;;6181344;23;20031;-78
2021/06/03 07:25:40;;;;;;;11.95;5.47;;;22.10;99.90;;;;;;6192783;23;20024;-78
2021/06/03 07:28:08;;;;;;;8.98;5.38;;;22.20;99.90;;;;;;6184334;23;20017;-79
2021/06/03 07:30:35;;;;;;;8.32;5.57;;;22.20;99.90;;;;;;6158388;23;20013;-80
2021/06/03 07:33:06;;;;;;;15.77;4.60;;;22.30;99.90;;;;;;6182884;23;20016;-81
2021/06/03 07:35:35;;;;;;;7.18;4.60;;;22.40;99.90;;;;;;6157486;23;20021;-79
2021/06/03 07:38:09;;;;;;;11.52;5.80;;;22.40;99.90;;;;;;6181142;23;20036;-83
2021/06/03 07:40:37;;;;;;;11.27;6.03;;;22.70;99.90;;;;;;6182356;23;20366;-83
2021/06/03 07:43:09;;;;;;;7.00;5.45;;;22.80;99.90;;;;;;6182796;23;20021;-82
2021/06/03 07:45:35;;;;;;;7.85;6.05;;;22.80;99.90;;;;;;6157741;23;20013;-83
2021/06/03 07:48:03;;;;;;;9.98;5.95;;;22.90;99.90;;;;;;6184731;23;20449;-82
2021/06/03 07:50:33;;;;;;;8.35;6.78;;;22.90;99.90;;;;;;6159280;23;20017;-82
2021/06/03 07:53:01;;;;;;;13.18;6.93;;;22.90;99.90;;;;;;6180710;23;20088;-81
2021/06/03 07:55:27;;;;;;;11.68;7.18;;;22.80;99.90;;;;;;6158081;23;20433;-83
2021/06/03 07:57:57;;;;;;;13.15;7.38;;;23.10;99.90;;;;;;6182581;23;20013;-84
2021/06/03 08:00:25;;;;;;;11.93;8.00;;;23.10;99.90;;;;;;6168934;23;20071;-81
2021/06/03 08:02:51;;;;;;;15.02;7.30;;;23.00;99.90;;;;;;6158367;23;20442;-84
2021/06/03 08:05:21;;;;;;;10.93;7.88;;;23.20;99.90;;;;;;6134471;23;20116;-84
2021/06/03 08:07:49;;;;;;;11.93;7.70;;;23.20;99.90;;;;;;6168641;23;20048;-81
2021/06/03 08:10:18;;;;;;;13.05;7.68;;;23.30;99.90;;;;;;6185552;23;20020;-81
2021/06/03 08:12:50;;;;;;;10.88;7.88;;;23.40;99.90;;;;;;6158564;23;20029;-80
2021/06/03 08:15:16;;;;;;;8.15;7.05;;;23.40;99.90;;;;;;6182771;23;20051;-83
2021/06/03 08:17:48;;;;;;;9.05;7.38;;;23.60;99.90;;;;;;6193539;23;20087;-80
2021/06/03 08:20:16;;;;;;;12.77;7.60;;;23.60;99.90;;;;;;6185182;23;20393;-84
2021/06/03 08:22:42;;;;;;;12.60;7.65;;;23.80;99.90;;;;;;6182072;23;20029;-84
2021/06/03 08:25:10;;;;;;;12.55;7.55;;;23.80;99.90;;;;;;6182503;23;20017;-84
2021/06/03 08:27:36;;;;;;;13.88;8.00;;;23.90;99.90;;;;;;6157769;23;20441;-84
2021/06/03 08:30:05;;;;;;;11.85;8.43;;;24.00;99.90;;;;;;6182046;23;20013;-82
2021/06/03 08:32:48;;;;;;;17.05;8.25;;;23.90;99.90;;;;;;6193329;23;20032;-83
2021/06/03 08:35:18;;;;;;;13.00;7.80;;;24.00;99.90;;;;;;6183054;23;20088;-82
2021/06/03 08:38:07;;;;;;;11.82;8.40;;;24.20;99.90;;;;;;6161254;23;20026;-83
2021/06/03 08:40:40;;;;;;;11.50;8.02;;;24.20;99.90;;;;;;6158306;23;20116;-83
2021/06/03 08:43:07;;;;;;;11.88;8.18;;;24.10;99.90;;;;;;6157287;23;20017;-82
2021/06/03 08:45:37;;;;;;;12.50;7.55;;;24.30;99.90;;;;;;6183789;23;20021;-82
2021/06/03 08:48:04;;;;;;;12.10;7.72;;;24.50;99.90;;;;;;6194465;23;20036;-85
2021/06/03 08:50:36;;;;;;;12.60;7.93;;;24.50;99.90;;;;;;6157870;23;20020;-85
2021/06/03 08:53:04;;;;;;;11.93;7.95;;;24.50;99.90;;;;;;6157523;23;20017;-84
2021/06/03 08:58:17;;;;;;;12.50;8.35;;;24.60;99.90;;;;;;6158180;23;20013;-85
2021/06/03 09:00:44;;;;;;;11.00;7.30;;;24.60;99.90;;;;;;6193290;23;20020;-84
2021/06/03 09:03:10;;;;;;;9.98;7.72;;;24.90;99.90;;;;;;6183159;23;20021;-84
2021/06/03 09:05:37;;;;;;;9.55;7.10;;;25.00;99.90;;;;;;6195304;23;20380;-85
2021/06/03 09:08:23;;;;;;;12.25;7.60;;;25.20;99.90;;;;;;6185069;23;20069;-85
2021/06/03 09:10:53;;;;;;;8.77;7.47;;;25.20;99.90;;;;;;6183136;23;20020;-84
2021/06/03 09:13:25;;;;;;;9.60;7.10;;;25.10;99.90;;;;;;6195326;23;20009;-85
2021/06/03 09:15:57;;;;;;;9.77;7.80;;;25.10;99.90;;;;;;6193536;23;20017;-85
2021/06/03 09:18:30;;;;;;;10.75;7.07;;;25.20;99.90;;;;;;6182427;23;20021;-85
2021/06/03 09:21:05;;;;;;;10.68;7.78;;;25.30;99.90;;;;;;6183678;23;20017;-85
2021/06/03 09:23:34;;;;;;;11.27;7.90;;;25.60;99.90;;;;;;6158299;23;20579;-90
2021/06/03 09:26:06;;;;;;;12.73;8.43;;;25.60;99.90;;;;;;6183123;23;20044;-87
2021/06/03 09:28:41;;;;;;;19.05;8.50;;;25.50;99.90;;;;;;6158418;23;20009;-84
2021/06/03 09:31:12;;;;;;;9.65;7.93;;;25.80;99.90;;;;;;6158052;23;20323;-88
2021/06/03 09:33:50;;;;;;;12.25;7.72;;;25.70;99.90;;;;;;6194315;23;20009;-89
2021/06/03 09:36:20;;;;;;;19.38;8.20;;;25.90;99.90;;;;;;6157910;23;20071;-84
2021/06/03 09:39:02;;;;;;;13.80;7.88;;;26.00;99.90;;;;;;6158380;23;20013;-86
2021/06/03 09:41:29;;;;;;;11.65;7.90;;;26.30;99.90;;;;;;6158038;23;20017;-85
2021/06/03 09:44:25;;;;;;;11.68;7.22;;;26.50;99.90;;;;;;6192016;23;20009;-85
2021/06/03 09:47:05;;;;;;;13.70;7.97;;;26.70;99.90;;;;;;6138636;23;20044;-86
2021/06/03 09:49:40;;;;;;;9.98;7.25;;;26.90;99.90;;;;;;6156703;23;20378;-87
2021/06/03 09:52:09;;;;;;;12.00;7.85;;;26.80;99.90;;;;;;6182626;23;20005;-81
2021/06/03 09:54:36;;;;;;;14.95;7.60;;;26.90;99.90;;;;;;6157683;23;20023;-83
2021/06/03 09:57:05;;;;;;;12.23;7.55;;;26.80;99.90;;;;;;6158577;23;20052;-83
2021/06/03 09:59:40;;;;;;;11.63;7.72;;;26.70;99.90;;;;;;6157549;23;20017;-82
2021/06/03 10:02:20;;;;;;;14.30;6.97;;;26.70;99.90;;;;;;6193347;23;20405;-83
2021/06/03 10:04:47;;;;;;;12.35;7.63;;;26.80;99.90;;;;;;6158135;23;20017;-83
2021/06/03 10:07:17;;;;;;;10.40;7.65;;;26.80;99.90;;;;;;6193062;23;20040;-83
2021/06/03 10:09:50;;;;;;;10.20;7.70;;;26.60;99.90;;;;;;6164748;23;20048;-83
2021/06/03 10:12:25;;;;;;;12.48;8.75;;;26.70;99.90;;;;;;6155815;23;20430;-83
2021/06/03 10:15:06;;;;;;;10.15;7.90;;;26.70;99.90;;;;;;6157235;23;20013;-82
2021/06/03 10:17:52;;;;;;;10.65;7.05;;;26.90;99.90;;;;;;6157541;23;20016;-86
2021/06/03 10:20:24;;;;;;;11.95;7.28;;;27.10;99.90;;;;;;6167495;23;20008;-82
2021/06/03 10:22:52;;;;;;;11.60;7.10;;;27.10;99.90;;;;;;6192792;23;20087;-83
2021/06/03 10:25:23;;;;;;;8.70;5.90;;;27.50;99.90;;;;;;6161598;23;20032;-83
2021/06/03 10:28:02;;;;;;;8.05;6.10;;;27.50;99.70;;;;;;6193790;23;20067;-82
2021/06/03 10:30:32;;;;;;;7.97;6.00;;;27.50;99.00;;;;;;6184107;23;20096;-83
2021/06/03 10:33:07;;;;;;;13.35;6.20;;;27.90;99.00;;;;;;6183648;23;20013;-82
2021/06/03 10:35:33;;;;;;;;;;;28.10;99.00;;;;;;6157931;23;20398;-83
2021/06/03 10:38:00;;;;;;;10.82;6.50;;;28.00;98.40;;;;;;6156856;23;19912;-83
2021/06/03 10:40:30;;;;;;;7.40;6.10;;;28.20;98.00;;;;;;6131753;23;20017;-83
2021/06/03 10:42:58;;;;;;;10.48;6.50;;;28.30;98.00;;;;;;6183738;23;20044;-83
2021/06/03 10:45:25;;;;;;;8.68;5.88;;;28.70;97.60;;;;;;6183259;23;20013;-83
2021/06/03 10:47:52;;;;;;;11.02;6.55;;;28.90;97.60;;;;;;6132135;23;20342;-83
2021/06/03 10:50:21;;;;;;;13.60;7.03;;;29.00;96.70;;;;;;6166963;23;20031;-81
2021/06/03 10:52:47;;;;;;;10.88;6.80;;;29.20;96.00;;;;;;6166594;23;20013;-81
2021/06/03 10:55:24;;;;;;;8.85;6.15;;;29.20;96.30;;;;;;6132644;23;20014;-81
2021/06/03 10:58:01;;;;;;;9.00;5.45;;;29.10;96.60;;;;;;6158617;23;20028;-81
2021/06/03 11:00:43;;;;;;;9.77;5.10;;;29.40;95.70;;;;;;6158406;23;20009;-80
2021/06/03 11:03:18;;;;;;;7.65;4.60;;;29.70;95.20;;;;;;6163108;23;20017;-80
2021/06/03 11:05:47;;;;;;;11.25;6.18;;;29.80;94.30;;;;;;6195194;23;20342;-79
2021/06/03 11:08:51;;;;;;;9.27;7.00;;;29.60;94.20;;;;;;6196784;23;20016;-80
2021/06/03 11:11:19;;;;;;;9.43;6.00;;;29.20;93.90;;;;;;6065551;23;20095;-80
2021/06/03 11:13:48;;;;;;;9.80;5.65;;;28.80;94.50;;;;;;6065434;23;20408;-80
2021/06/03 11:16:16;;;;;;;9.82;5.55;;;28.50;95.10;;;;;;6065844;23;20027;-80
2021/06/03 11:18:46;;;;;;;8.73;5.80;;;28.50;95.50;;;;;;6064919;23;20101;-80
2021/06/03 11:21:35;;;;;;;10.48;5.80;;;28.50;95.50;;;;;;6066270;23;20023;-82
2021/06/03 11:24:10;;;;;;;8.60;5.72;;;28.20;95.30;;;;;;5980339;24;20111;-82
2021/06/03 11:26:45;;;;;;;9.57;5.30;;;28.30;95.50;;;;;;5979532;24;20493;-81
2021/06/03 11:29:15;;;;;;;7.75;5.30;;;28.30;95.90;;;;;;5956804;24;20103;-81
2021/06/03 11:31:51;;;;;;;7.18;5.00;;;28.40;95.20;;;;;;5933888;24;20118;-81
2021/06/03 11:34:21;;;;;;;8.43;5.32;;;28.50;94.80;;;;;;5958236;24;20499;-81
2021/06/03 11:37:02;;;;;;;11.00;5.10;;;28.60;95.10;;;;;;5979619;24;20039;-81
2021/06/03 11:39:31;;;;;;;9.35;5.03;;;28.60;94.90;;;;;;5988268;24;20039;-81
2021/06/03 11:42:54;;;;;;;9.75;4.85;;;28.60;95.30;;;;;;5997044;23;20015;-82
2021/06/03 11:45:45;;;;;;;6.75;5.97;;;28.50;95.10;;;;;;5979973;24;20027;-81
2021/06/03 11:48:16;;;;;;;10.18;5.63;;;28.10;94.70;;;;;;5985779;24;20020;-82
2021/06/03 11:50:48;;;;;;;7.82;4.85;;;28.40;95.20;;;;;;5982479;24;20016;-81
2021/06/03 11:53:16;;;;;;;8.05;5.20;;;28.30;95.80;;;;;;5958736;24;20031;-81
2021/06/03 11:55:50;;;;;;;9.95;5.13;;;28.20;95.80;;;;;;5959500;24;20061;-81
2021/06/03 11:58:18;;;;;;;9.00;4.60;;;28.00;96.30;;;;;;5982340;24;20043;-81
2021/06/03 12:00:45;;;;;;;15.38;4.63;;;27.90;96.20;;;;;;6019608;23;20019;-81
2021/06/03 12:03:27;;;;;;;7.50;3.72;;;28.30;95.70;;;;;;6042080;23;20047;-82
2021/06/03 12:06:04;;;;;;;7.80;3.40;;;28.60;94.20;;;;;;6016593;23;20518;-81
2021/06/03 12:08:34;;;;;;;10.20;3.20;;;28.70;93.80;;;;;;6039982;23;20030;-82
2021/06/03 12:11:03;;;;;;;8.90;3.03;;;28.60;93.90;;;;;;6064713;23;20114;-82
2021/06/03 12:13:28;;;;;;;10.70;3.10;;;28.70;93.30;;;;;;6015387;23;20427;-81
2021/06/03 12:15:56;;;;;;;6.88;2.97;;;29.00;93.10;;;;;;6065845;23;20017;-83
2021/06/03 12:18:21;;;;;;;3.30;2.50;;;29.50;93.00;;;;;;6192175;23;20447;-82
2021/06/03 12:20:48;;;;;;;5.78;2.78;;;29.90;93.20;;;;;;6192439;23;20013;-83
2021/06/03 12:23:14;;;;;;;7.25;3.03;;;30.40;91.90;;;;;;6192597;23;20017;-83
2021/06/03 12:25:43;;;;;;;9.73;3.10;;;30.70;90.60;;;;;;6157233;23;20084;-83
2021/06/03 12:28:10;;;;;;;5.03;2.78;;;30.70;90.40;;;;;;6183589;23;20036;-82
2021/06/03 12:30:39;;;;;;;6.22;2.85;;;30.70;87.60;;;;;;6156647;23;20009;-83
2021/06/03 12:33:25;;;;;;;6.53;3.72;;;30.60;87.20;;;;;;6182605;23;20009;-83
2021/06/03 12:35:57;;;;;;;5.93;2.95;;;30.20;84.50;;;;;;6167203;23;20020;-82
2021/06/03 12:38:29;;;;;;;4.47;2.50;;;29.90;84.40;;;;;;6183638;23;20013;-82
2021/06/03 12:41:04;;;;;;;5.32;2.70;;;29.80;82.50;;;;;;6187256;23;20465;-81
2021/06/03 12:43:39;;;;;;;6.05;2.60;;;30.10;82.40;;;;;;6194378;23;20040;-82
2021/06/03 12:46:06;;;;;;;4.68;2.08;;;30.10;83.10;;;;;;6194678;23;20017;-82
2021/06/03 12:48:32;;;;;;;4.28;2.40;;;30.40;82.50;;;;;;6158244;23;20454;-83
2021/06/03 12:51:00;;;;;;;6.15;2.22;;;30.90;81.00;;;;;;6158200;23;20051;-83
2021/06/03 12:53:27;;;;;;;4.13;2.35;;;31.40;80.60;;;;;;6167732;23;20020;-80